createdAt,value
2023-01-29T00:00:09.132Z,99992.34
2023-01-29T00:02:36.017Z,99985.59
2023-01-29T00:05:13.140Z,99976.72
2023-01-29T00:07:48.756Z,99960.28
2023-01-29T00:10:15.367Z,99952.56
2023-01-29T00:12:41.842Z,99937.34
2023-01-29T00:15:08.154Z,99938.31
2023-01-29T00:17:34.367Z,99919.31
2023-01-29T00:20:00.570Z,99907.28
2023-01-29T00:22:26.789Z,99905.69
2023-01-29T00:24:52.986Z,99890.25
2023-01-29T00:27:19.188Z,99872.81
2023-01-29T00:29:45.387Z,99859.34
2023-01-29T00:32:11.683Z,99838.16
2023-01-29T00:34:37.924Z,99820.16
2023-01-29T00:37:04.142Z,99806.91
2023-01-29T00:39:46.042Z,99786.09
2023-01-29T00:42:13.490Z,99777.81
2023-01-29T00:44:39.682Z,99764.16
2023-01-29T00:47:05.921Z,99743.38
2023-01-29T00:49:32.116Z,99714.47
2023-01-29T00:51:58.326Z,99699.63
2023-01-29T00:54:24.529Z,99685.97
2023-01-29T00:56:50.738Z,99678.25
2023-01-29T00:59:16.945Z,99665.97
2023-01-29T01:01:43.208Z,99649.53
2023-01-29T01:04:09.912Z,99628.31
2023-01-29T01:06:39.516Z,99619.44
2023-01-29T01:09:05.932Z,99603.78
2023-01-29T01:11:33.240Z,99594.88
2023-01-29T01:13:59.457Z,99590.72
2023-01-29T01:16:25.690Z,99570.72
2023-01-29T01:18:51.915Z,99555.84
2023-01-29T01:21:18.125Z,99524.00
2023-01-29T01:23:44.317Z,99514.50
2023-01-29T01:26:10.553Z,99489.72
2023-01-29T01:28:36.780Z,99480.81
2023-01-29T01:31:10.071Z,99475.69
2023-01-29T01:33:36.360Z,99457.81
2023-01-29T01:36:02.779Z,99449.31
2023-01-29T01:38:28.987Z,99439.00
2023-01-29T01:40:55.181Z,99416.63
2023-01-29T01:43:21.400Z,99395.78
2023-01-29T01:45:47.622Z,99374.41
2023-01-29T01:48:15.483Z,99360.75
2023-01-29T01:50:43.217Z,99350.47
2023-01-29T01:53:10.770Z,99338.38
2023-01-29T01:55:37.780Z,99330.44
2023-01-29T01:58:06.736Z,99318.16
2023-01-29T02:00:32.940Z,99300.13
2023-01-29T02:02:59.151Z,99275.13
2023-01-29T02:05:25.382Z,99257.91
2023-01-29T02:07:51.581Z,99252.53
2023-01-29T02:10:18.132Z,99226.78
2023-01-29T02:12:44.553Z,99209.56
2023-01-29T02:15:10.806Z,99194.13
2023-01-29T02:17:37.046Z,99167.38
2023-01-29T02:20:05.966Z,99147.78
2023-01-29T02:22:47.393Z,99128.31
2023-01-29T02:25:25.180Z,99109.75
2023-01-29T02:28:10.253Z,99087.13
2023-01-29T02:30:37.668Z,99066.13
2023-01-29T02:33:22.697Z,99061.75
2023-01-29T02:35:55.458Z,99051.22
2023-01-29T02:38:24.991Z,99032.75
2023-01-29T02:40:58.333Z,99006.56
2023-01-29T02:43:37.898Z,98997.28
2023-01-29T02:46:07.089Z,98984.63
2023-01-29T02:48:48.686Z,98955.06
2023-01-29T02:51:18.702Z,98944.78
2023-01-29T02:53:47.665Z,98924.75
2023-01-29T02:56:15.412Z,98900.47
2023-01-29T02:58:42.650Z,98881.88
2023-01-29T03:01:10.200Z,98878.28
2023-01-29T03:03:38.109Z,98853.78
2023-01-29T03:06:06.326Z,98838.88
2023-01-29T03:08:37.845Z,98813.78
2023-01-29T03:11:05.147Z,98804.25
2023-01-29T03:13:40.152Z,98792.91
2023-01-29T03:16:26.676Z,98787.47
2023-01-29T03:18:54.821Z,98772.03
2023-01-29T03:21:22.530Z,98773.03
2023-01-29T03:23:48.746Z,98756.34
2023-01-29T03:26:15.394Z,98752.75
2023-01-29T03:28:41.921Z,98735.75
2023-01-29T03:31:09.629Z,98743.47
2023-01-29T03:33:40.441Z,98732.66
2023-01-29T03:36:08.745Z,98731.66
2023-01-29T03:38:34.954Z,98734.72
2023-01-29T03:41:05.727Z,98720.81
2023-01-29T03:43:47.271Z,98706.72
2023-01-29T03:46:17.358Z,98699.31
2023-01-29T03:48:49.567Z,98704.69
2023-01-29T03:51:15.721Z,98697.03
2023-01-29T03:53:42.902Z,98682.59
2023-01-29T03:56:21.424Z,98678.00
2023-01-29T03:58:49.945Z,98664.66
2023-01-29T04:01:26.559Z,98664.88
2023-01-29T04:03:53.981Z,98651.78
2023-01-29T04:06:20.754Z,98636.31
2023-01-29T04:08:49.923Z,98627.56
2023-01-29T04:11:16.451Z,98632.28
2023-01-29T04:13:42.655Z,98620.25
2023-01-29T04:16:10.354Z,98606.34
2023-01-29T04:18:36.630Z,98596.81
2023-01-29T04:21:02.868Z,98592.69
2023-01-29T04:23:29.070Z,98587.53
2023-01-29T04:26:10.411Z,98579.03
2023-01-29T04:28:54.477Z,98569.81
2023-01-29T04:31:22.468Z,98550.50
2023-01-29T04:34:08.940Z,98548.19
2023-01-29T04:36:39.945Z,98551.28
2023-01-29T04:39:25.579Z,98552.31
2023-01-29T04:41:55.720Z,98547.16
2023-01-29T04:44:23.742Z,98549.19
2023-01-29T04:46:57.780Z,98551.47
2023-01-29T04:49:42.888Z,98548.41
2023-01-29T04:52:11.309Z,98550.47
2023-01-29T04:54:45.537Z,98537.88
2023-01-29T04:57:14.564Z,98521.88
2023-01-29T04:59:48.036Z,98515.78
2023-01-29T05:02:14.263Z,98514.41
2023-01-29T05:04:40.889Z,98503.13
2023-01-29T05:07:07.963Z,98498.50
2023-01-29T05:09:34.165Z,98501.88
2023-01-29T05:12:00.713Z,98494.59
2023-01-29T05:14:26.948Z,98485.38
2023-01-29T05:16:53.316Z,98485.63
2023-01-29T05:19:19.524Z,98477.13
2023-01-29T05:21:46.339Z,98461.72
2023-01-29T05:24:12.648Z,98467.66
2023-01-29T05:26:38.868Z,98482.34
2023-01-29T05:29:05.088Z,98473.28
2023-01-29T05:31:31.361Z,98462.00
2023-01-29T05:33:57.620Z,98462.00
2023-01-29T05:36:23.825Z,98449.38
2023-01-29T05:38:50.087Z,98416.94
2023-01-29T05:41:16.300Z,98410.78
2023-01-29T05:43:42.742Z,98406.44
2023-01-29T05:46:09.264Z,98393.59
2023-01-29T05:48:35.469Z,98368.84
2023-01-29T05:51:01.919Z,98373.22
2023-01-29T05:53:30.998Z,98379.38
2023-01-29T05:55:57.331Z,98370.16
2023-01-29T05:58:23.565Z,98356.00
2023-01-29T06:00:49.781Z,98353.41
2023-01-29T06:03:16.045Z,98363.75
2023-01-29T06:05:42.253Z,98361.19
2023-01-29T06:08:08.545Z,98371.25
2023-01-29T06:10:34.747Z,98361.72
2023-01-29T06:13:00.964Z,98368.66
2023-01-29T06:15:27.157Z,98371.78
2023-01-29T06:17:53.789Z,98363.56
2023-01-29T06:20:20.013Z,98368.22
2023-01-29T06:22:46.212Z,98372.34
2023-01-29T06:25:12.439Z,98364.09
2023-01-29T06:27:38.633Z,98363.06
2023-01-29T06:30:05.262Z,98362.53
2023-01-29T06:32:31.535Z,98364.59
2023-01-29T06:34:57.798Z,98366.72
2023-01-29T06:37:23.990Z,98369.53
2023-01-29T06:39:50.198Z,98358.69
2023-01-29T06:42:16.403Z,98358.69
2023-01-29T06:44:42.623Z,98357.41
2023-01-29T06:47:08.827Z,98348.97
2023-01-29T06:49:35.030Z,98348.69
2023-01-29T06:52:01.242Z,98353.34
2023-01-29T06:54:27.447Z,98348.19
2023-01-29T06:56:53.645Z,98360.34
2023-01-29T06:59:19.855Z,98372.19
2023-01-29T07:01:46.155Z,98386.84
2023-01-29T07:04:12.435Z,98381.72
2023-01-29T07:06:38.718Z,98369.09
2023-01-29T07:09:04.939Z,98382.47
2023-01-29T07:11:31.247Z,98389.22
2023-01-29T07:13:57.478Z,98399.78
2023-01-29T07:16:23.774Z,98394.63
2023-01-29T07:18:50.020Z,98405.72
2023-01-29T07:21:16.226Z,98417.81
2023-01-29T07:23:43.000Z,98424.78
2023-01-29T07:26:09.850Z,98433.81
2023-01-29T07:28:36.489Z,98438.97
2023-01-29T07:31:02.775Z,98454.69
2023-01-29T07:33:29.003Z,98457.81
2023-01-29T07:35:55.212Z,98469.41
2023-01-29T07:38:21.475Z,98482.81
2023-01-29T07:40:47.715Z,98489.50
2023-01-29T07:43:13.949Z,98498.53
2023-01-29T07:45:40.299Z,98509.38
2023-01-29T07:48:07.030Z,98507.03
2023-01-29T07:50:33.559Z,98518.91
2023-01-29T07:52:59.823Z,98538.25
2023-01-29T07:55:26.068Z,98537.25
2023-01-29T07:57:55.809Z,98552.25
2023-01-29T08:00:22.080Z,98569.97
2023-01-29T08:02:48.276Z,98578.81
2023-01-29T08:05:14.485Z,98606.41
2023-01-29T08:07:40.695Z,98625.22
2023-01-29T08:10:06.999Z,98635.59
2023-01-29T08:12:33.208Z,98667.03
2023-01-29T08:14:59.423Z,98716.25
2023-01-29T08:17:25.618Z,98736.66
2023-01-29T08:19:51.823Z,98742.59
2023-01-29T08:22:18.056Z,98755.72
2023-01-29T08:24:53.844Z,98781.81
2023-01-29T08:27:26.536Z,98828.72
2023-01-29T08:29:52.796Z,98853.50
2023-01-29T08:32:19.001Z,98893.50
2023-01-29T08:34:45.214Z,98932.75
2023-01-29T08:37:11.426Z,98974.25
2023-01-29T08:39:37.641Z,99010.34
2023-01-29T08:42:03.884Z,99051.94
2023-01-29T08:44:30.087Z,99096.25
2023-01-29T08:46:56.312Z,99121.03
2023-01-29T08:49:22.555Z,99138.88
2023-01-29T08:51:48.772Z,99163.09
2023-01-29T08:54:14.974Z,99181.72
2023-01-29T08:56:41.196Z,99211.47
2023-01-29T08:59:07.403Z,99244.63
2023-01-29T09:01:33.721Z,99261.50
2023-01-29T09:04:00.016Z,99293.66
2023-01-29T09:06:26.231Z,99303.56
2023-01-29T09:08:52.447Z,99323.41
2023-01-29T09:11:18.653Z,99321.16
2023-01-29T09:13:44.869Z,99322.94
2023-01-29T09:16:11.118Z,99329.69
2023-01-29T09:18:37.328Z,99334.63
2023-01-29T09:21:03.635Z,99344.38
2023-01-29T09:23:29.856Z,99339.22
2023-01-29T09:25:56.118Z,99341.00
2023-01-29T09:28:22.385Z,99339.78
2023-01-29T09:30:48.691Z,99338.78
2023-01-29T09:33:14.991Z,99336.72
2023-01-29T09:35:41.619Z,99344.16
2023-01-29T09:38:08.527Z,99332.81
2023-01-29T09:40:43.823Z,99337.50
2023-01-29T09:43:27.377Z,99350.19
2023-01-29T09:45:58.288Z,99363.53
2023-01-29T09:48:28.376Z,99360.94
2023-01-29T09:50:54.741Z,99358.16
2023-01-29T09:53:21.901Z,99364.09
2023-01-29T09:55:56.342Z,99370.03
2023-01-29T09:58:25.615Z,99385.28
2023-01-29T10:00:54.521Z,99397.00
2023-01-29T10:03:23.985Z,99405.28
2023-01-29T10:05:50.162Z,99419.44
2023-01-29T10:08:16.437Z,99431.53
2023-01-29T10:10:55.940Z,99440.06
2023-01-29T10:13:25.129Z,99466.44
2023-01-29T10:15:51.618Z,99482.72
2023-01-29T10:18:47.156Z,99495.97
2023-01-29T10:21:17.080Z,99535.75
2023-01-29T10:23:53.900Z,99540.72
2023-01-29T10:26:20.986Z,99564.13
2023-01-29T10:28:48.081Z,99565.53
2023-01-29T10:31:33.559Z,99595.47
2023-01-29T10:34:21.343Z,99601.84
2023-01-29T10:36:48.202Z,99620.72
2023-01-29T10:39:18.082Z,99654.41
2023-01-29T10:41:44.273Z,99653.19
2023-01-29T10:44:30.722Z,99683.59
2023-01-29T10:47:00.022Z,99705.59
2023-01-29T10:49:32.170Z,99710.75
2023-01-29T10:52:03.175Z,99739.38
2023-01-29T10:54:32.532Z,99749.56
2023-01-29T10:57:19.209Z,99776.16
2023-01-29T10:59:48.831Z,99779.66
2023-01-29T11:02:15.888Z,99789.34
2023-01-29T11:04:42.104Z,99785.19
2023-01-29T11:07:08.323Z,99793.56
2023-01-29T11:09:35.795Z,99788.78
2023-01-29T11:12:03.021Z,99800.53
2023-01-29T11:14:32.546Z,99800.31
2023-01-29T11:16:58.802Z,99820.16
2023-01-29T11:19:38.266Z,99818.44
2023-01-29T11:22:04.554Z,99812.69
2023-01-29T11:24:30.746Z,99818.06
2023-01-29T11:26:57.984Z,99835.91
2023-01-29T11:29:27.173Z,99833.31
2023-01-29T11:31:53.475Z,99840.50
2023-01-29T11:34:20.816Z,99830.38
2023-01-29T11:36:47.023Z,99839.50
2023-01-29T11:39:16.213Z,99849.03
2023-01-29T11:41:49.652Z,99863.16
2023-01-29T11:44:39.105Z,99862.31
2023-01-29T11:47:14.083Z,99846.97
2023-01-29T11:49:40.949Z,99861.97
2023-01-29T11:52:07.665Z,99876.16
2023-01-29T11:54:38.505Z,99876.41
2023-01-29T11:57:04.779Z,99879.00
2023-01-29T11:59:37.891Z,99880.56
2023-01-29T12:02:13.331Z,99850.34
2023-01-29T12:04:39.572Z,99864.66
2023-01-29T12:07:10.501Z,99852.88
2023-01-29T12:09:36.733Z,99864.50
2023-01-29T12:12:26.835Z,99910.22
2023-01-29T12:15:02.413Z,99915.47
2023-01-29T12:17:28.613Z,99898.25
2023-01-29T12:19:55.598Z,99866.66
2023-01-29T12:22:21.749Z,99838.03
2023-01-29T12:27:34.150Z,99843.88
2023-01-29T12:30:06.299Z,99867.97
2023-01-29T12:32:34.896Z,99871.31
2023-01-29T12:35:10.557Z,99861.25
2023-01-29T12:37:51.988Z,99846.13
2023-01-29T12:40:18.719Z,99827.28
2023-01-29T12:42:46.425Z,99830.28
2023-01-29T12:45:16.028Z,99822.22
2023-01-29T12:47:59.104Z,99807.91
2023-01-29T12:50:29.131Z,99790.44
2023-01-29T12:53:10.090Z,99790.06
2023-01-29T12:55:43.034Z,99787.66
2023-01-29T12:58:10.405Z,99767.81
2023-01-29T13:00:37.531Z,99753.28
2023-01-29T13:03:22.716Z,99760.00
2023-01-29T13:05:53.137Z,99745.66
2023-01-29T13:08:20.770Z,99730.56
2023-01-29T13:10:50.555Z,99740.66
2023-01-29T13:13:35.605Z,99744.88
2023-01-29T13:16:01.916Z,99738.31
2023-01-29T13:18:37.191Z,99740.72
2023-01-29T13:21:03.519Z,99745.59
2023-01-29T13:23:39.514Z,99757.97
2023-01-29T13:26:05.730Z,99747.63
2023-01-29T13:28:31.945Z,99746.91
2023-01-29T13:31:16.912Z,99754.06
2023-01-29T13:33:43.129Z,99748.13
2023-01-29T13:36:16.280Z,99751.13
2023-01-29T13:38:42.487Z,99745.38
2023-01-29T13:41:08.703Z,99744.78
2023-01-29T13:43:38.605Z,99742.63
2023-01-29T13:46:08.869Z,99729.75
2023-01-29T13:48:35.103Z,99725.38
2023-01-29T13:51:01.430Z,99728.41
2023-01-29T13:53:28.557Z,99714.72
2023-01-29T13:55:54.764Z,99711.88
2023-01-29T13:58:46.689Z,99710.34
2023-01-29T14:01:12.934Z,99704.59
2023-01-29T14:04:03.618Z,99697.88
2023-01-29T14:06:38.093Z,99687.34
2023-01-29T14:09:04.298Z,99694.84
2023-01-29T14:11:34.120Z,99690.47
2023-01-29T14:14:00.322Z,99685.88
2023-01-29T14:16:27.411Z,99692.81
2023-01-29T14:21:36.198Z,99692.81
2023-01-29T14:24:09.464Z,99709.56
2023-01-29T14:26:38.528Z,99709.56
2023-01-29T14:29:04.744Z,99715.50
2023-01-29T14:31:39.200Z,99726.38
2023-01-29T14:34:06.420Z,99735.00
2023-01-29T14:36:39.736Z,99740.50
2023-01-29T14:39:05.930Z,99746.69
2023-01-29T14:41:32.692Z,99746.09
2023-01-29T14:44:17.684Z,99741.75
2023-01-29T14:46:43.974Z,99752.41
2023-01-29T14:49:10.183Z,99761.72
2023-01-29T14:51:36.824Z,99765.31
2023-01-29T14:54:13.007Z,99776.06
2023-01-29T14:56:52.066Z,99775.28
2023-01-29T14:59:29.400Z,99775.06
2023-01-29T15:01:55.944Z,99786.72
2023-01-29T15:04:41.626Z,99789.31
2023-01-29T15:07:10.818Z,99808.94
2023-01-29T15:09:42.584Z,99812.78
2023-01-29T15:12:14.885Z,99822.53
2023-01-29T15:14:52.436Z,99836.22
2023-01-29T15:17:20.769Z,99836.47
2023-01-29T15:19:47.326Z,99833.09
2023-01-29T15:22:17.107Z,99832.09
2023-01-29T15:24:43.567Z,99833.88
2023-01-29T15:27:11.188Z,99846.78
2023-01-29T15:29:37.381Z,99858.47
2023-01-29T15:32:03.656Z,99859.28
2023-01-29T15:34:29.915Z,99853.94
2023-01-29T15:37:03.297Z,99837.44
2023-01-29T15:39:29.498Z,99847.78
2023-01-29T15:42:10.595Z,99848.19
2023-01-29T15:44:36.790Z,99845.97
2023-01-29T15:47:03.037Z,99855.50
2023-01-29T15:49:30.135Z,99867.06
2023-01-29T15:51:57.039Z,99869.63
2023-01-29T15:54:23.268Z,99866.22
2023-01-29T15:56:52.510Z,99894.00
2023-01-29T15:59:19.399Z,99889.03
2023-01-29T16:01:45.945Z,99904.53
2023-01-29T16:04:13.534Z,99901.59
2023-01-29T16:06:39.906Z,99894.69
2023-01-29T16:09:06.172Z,99892.47
2023-01-29T16:11:32.761Z,99888.75
2023-01-29T16:13:58.970Z,99876.22
2023-01-29T16:16:25.514Z,99867.09
2023-01-29T16:18:59.874Z,99865.53
2023-01-29T16:21:31.028Z,99846.72
2023-01-29T16:24:04.967Z,99842.16
2023-01-29T16:26:31.849Z,99847.66
2023-01-29T16:28:58.086Z,99840.16
2023-01-29T16:31:25.885Z,99830.84
2023-01-29T16:33:52.173Z,99838.56
2023-01-29T16:36:19.281Z,99837.41
2023-01-29T16:39:05.739Z,99836.00
2023-01-29T16:41:35.610Z,99854.84
2023-01-29T16:44:02.359Z,99873.25
2023-01-29T16:46:34.774Z,99870.72
2023-01-29T16:49:01.129Z,99870.53
2023-01-29T16:51:37.248Z,99889.78
2023-01-29T16:54:07.264Z,99905.63
2023-01-29T16:56:33.461Z,99899.94
2023-01-29T16:59:00.051Z,99893.78
2023-01-29T17:01:26.664Z,99895.56
2023-01-29T17:03:57.723Z,99900.72
2023-01-29T17:06:24.442Z,99910.84
2023-01-29T17:08:50.655Z,99920.94
2023-01-29T17:11:24.563Z,99923.53
2023-01-29T17:13:50.778Z,99930.09
2023-01-29T17:16:20.094Z,99932.28
2023-01-29T17:18:46.323Z,99934.84
2023-01-29T17:21:12.532Z,99949.13
2023-01-29T17:23:38.759Z,99943.19
2023-01-29T17:26:05.071Z,99944.59
2023-01-29T17:28:31.340Z,99948.34
2023-01-29T17:31:06.365Z,99948.94
2023-01-29T17:33:33.267Z,99954.13
2023-01-29T17:35:59.467Z,99956.13
2023-01-29T17:38:26.807Z,99951.94
2023-01-29T17:40:53.427Z,99951.56
2023-01-29T17:43:19.642Z,99943.47
2023-01-29T17:45:46.208Z,99942.28
2023-01-29T17:48:18.045Z,99931.78
2023-01-29T17:50:44.272Z,99926.00
2023-01-29T17:53:10.481Z,99923.66
2023-01-29T17:55:36.700Z,99901.66
2023-01-29T17:58:03.241Z,99899.47
2023-01-29T18:00:29.504Z,99900.47
2023-01-29T18:02:55.704Z,99894.94
2023-01-29T18:05:22.383Z,99879.25
2023-01-29T18:07:48.586Z,99859.84
2023-01-29T18:10:18.846Z,99842.59
2023-01-29T18:12:45.057Z,99835.06
2023-01-29T18:15:11.679Z,99818.38
2023-01-29T18:17:38.095Z,99815.44
2023-01-29T18:20:06.681Z,99806.09
2023-01-29T18:22:32.970Z,99797.81
2023-01-29T18:24:59.192Z,99794.41
2023-01-29T18:27:25.481Z,99787.47
2023-01-29T18:29:51.691Z,99799.13
2023-01-29T18:32:17.895Z,99791.81
2023-01-29T18:34:44.091Z,99802.94
2023-01-29T18:37:12.960Z,99797.19
2023-01-29T18:39:39.288Z,99798.97
2023-01-29T18:42:05.495Z,99806.09
2023-01-29T18:44:31.716Z,99814.22
2023-01-29T18:46:57.939Z,99820.94
2023-01-29T18:49:24.148Z,99829.47
2023-01-29T18:51:50.346Z,99833.63
2023-01-29T18:54:16.578Z,99839.38
2023-01-29T18:57:13.407Z,99852.47
2023-01-29T18:59:29.227Z,99852.31
2023-01-29T19:01:55.559Z,99849.72
2023-01-29T19:04:21.785Z,99841.19
2023-01-29T19:06:48.075Z,99840.22
2023-01-29T19:09:14.292Z,99838.00
2023-01-29T19:11:40.495Z,99831.06
2023-01-29T19:14:06.797Z,99832.47
2023-01-29T19:16:33.031Z,99830.28
2023-01-29T19:18:59.314Z,99820.75
2023-01-29T19:21:25.541Z,99826.69
2023-01-29T19:23:51.778Z,99831.06
2023-01-29T19:26:18.041Z,99831.63
2023-01-29T19:28:44.249Z,99827.47
2023-01-29T19:31:10.500Z,99832.44
2023-01-29T19:33:36.738Z,99835.38
2023-01-29T19:36:02.972Z,99852.06
2023-01-29T19:38:29.206Z,99842.53
2023-01-29T19:40:55.450Z,99845.31
2023-01-29T19:43:21.648Z,99851.84
2023-01-29T19:45:49.395Z,99840.94
2023-01-29T19:48:16.617Z,99848.91
2023-01-29T19:50:42.826Z,99842.75
2023-01-29T19:53:09.021Z,99842.94
2023-01-29T19:55:35.241Z,99841.53
2023-01-29T19:58:01.436Z,99828.06
2023-01-29T20:00:27.722Z,99839.38
2023-01-29T20:02:53.952Z,99837.00
2023-01-29T20:05:20.592Z,99837.22
2023-01-29T20:07:46.938Z,99828.69
2023-01-29T20:10:13.169Z,99824.34
2023-01-29T20:12:39.371Z,99830.06
2023-01-29T20:15:05.715Z,99827.31
2023-01-29T20:17:31.928Z,99823.34
2023-01-29T20:19:58.143Z,99825.31
2023-01-29T20:22:24.349Z,99829.25
2023-01-29T20:24:50.542Z,99834.41
2023-01-29T20:27:16.746Z,99837.03
2023-01-29T20:29:42.941Z,99828.69
2023-01-29T20:32:09.134Z,99819.75
2023-01-29T20:34:35.718Z,99827.50
2023-01-29T20:37:01.955Z,99827.69
2023-01-29T20:39:28.170Z,99822.16
2023-01-29T20:41:54.392Z,99828.09
2023-01-29T20:44:20.591Z,99832.63
2023-01-29T20:46:46.792Z,99824.91
2023-01-29T20:49:13.015Z,99829.25
2023-01-29T20:51:39.240Z,99829.25
2023-01-29T20:54:05.463Z,99820.94
2023-01-29T20:56:36.311Z,99828.47
2023-01-29T20:59:09.028Z,99817.19
2023-01-29T21:01:35.226Z,99812.25
2023-01-29T21:04:01.431Z,99819.94
2023-01-29T21:06:27.650Z,99814.22
2023-01-29T21:08:53.866Z,99819.19
2023-01-29T21:11:20.069Z,99812.44
2023-01-29T21:13:46.275Z,99810.06
2023-01-29T21:16:12.718Z,99804.50
2023-01-29T21:18:38.966Z,99807.06
2023-01-29T21:21:05.245Z,99820.75
2023-01-29T21:23:31.451Z,99793.19
2023-01-29T21:26:04.200Z,99797.16
2023-01-29T21:28:30.429Z,99775.75
2023-01-29T21:31:05.975Z,99773.34
2023-01-29T21:33:32.192Z,99749.41
2023-01-29T21:35:58.712Z,99739.13
2023-01-29T21:38:25.058Z,99736.75
2023-01-29T21:40:51.274Z,99724.28
2023-01-29T21:43:17.493Z,99705.09
2023-01-29T21:45:43.745Z,99681.63
2023-01-29T21:48:10.193Z,99694.53
2023-01-29T21:50:36.426Z,99688.19
2023-01-29T21:53:02.681Z,99678.53
2023-01-29T21:55:28.887Z,99674.16
2023-01-29T21:57:55.108Z,99655.34
2023-01-29T22:00:21.378Z,99631.94
2023-01-29T22:02:47.672Z,99626.84
2023-01-29T22:05:19.482Z,99619.03
2023-01-29T22:07:46.201Z,99608.38
2023-01-29T22:10:12.599Z,99606.78
2023-01-29T22:12:38.982Z,99590.31
2023-01-29T22:15:05.607Z,99573.28
2023-01-29T22:17:31.819Z,99560.97
2023-01-29T22:19:58.027Z,99545.94
2023-01-29T22:22:24.243Z,99525.34
2023-01-29T22:24:50.438Z,99511.22
2023-01-29T22:27:16.638Z,99507.88
2023-01-29T22:29:42.853Z,99499.13
2023-01-29T22:32:09.347Z,99482.09
2023-01-29T22:34:35.588Z,99478.75
2023-01-29T22:37:01.834Z,99457.91
2023-01-29T22:39:28.030Z,99435.03
2023-01-29T22:41:54.242Z,99445.34
2023-01-29T22:44:20.449Z,99434.84
2023-01-29T22:46:46.692Z,99403.13
2023-01-29T22:49:12.914Z,99377.16
2023-01-29T22:51:39.125Z,99365.28
2023-01-29T22:54:05.323Z,99363.03
2023-01-29T22:56:31.537Z,99350.28
2023-01-29T22:58:58.318Z,99379.84
2023-01-29T23:01:25.315Z,99370.31
2023-01-29T23:03:51.533Z,99355.00
2023-01-29T23:06:17.753Z,99344.69
2023-01-29T23:08:44.146Z,99331.22
2023-01-29T23:11:11.017Z,99343.09
2023-01-29T23:13:37.222Z,99337.72
2023-01-29T23:16:03.448Z,99332.81
2023-01-29T23:18:29.690Z,99335.31
2023-01-29T23:20:56.485Z,99321.28
2023-01-29T23:23:22.687Z,99314.91
2023-01-29T23:25:48.882Z,99301.47
2023-01-29T23:28:15.100Z,99279.94
2023-01-29T23:30:41.338Z,99279.16
2023-01-29T23:33:07.710Z,99251.47
2023-01-29T23:35:33.906Z,99251.16
2023-01-29T23:38:00.140Z,99251.16
2023-01-29T23:40:26.343Z,99249.25
2023-01-29T23:42:52.549Z,99240.50
2023-01-29T23:45:18.775Z,99220.88
2023-01-29T23:47:44.998Z,99210.56
2023-01-29T23:50:11.402Z,99202.72
2023-01-29T23:52:37.894Z,99195.22
2023-01-29T23:55:04.227Z,99175.94
2023-01-29T23:57:30.434Z,99191.84
2023-01-29T23:59:56.626Z,99182.66
